sensor_id;sensor_type;location;lat;lon;timestamp;temperature;humidity
14600;DHT22;7386;45.586;12.854;2022-12-07T04:39:20;5.50;99.90
14600;DHT22;7386;45.586;12.854;2022-12-07T04:41:48;4.10;99.90
14600;DHT22;7386;45.586;12.854;2022-12-07T04:44:17;4.10;99.90
14600;DHT22;7386;45.586;12.854;2022-12-07T04:46:46;4.00;99.90
14600;DHT22;7386;45.586;12.854;2022-12-07T04:49:14;4.00;99.90
14600;DHT22;7386;45.586;12.854;2022-12-07T04:51:45;4.00;99.90
14600;DHT22;7386;45.586;12.854;2022-12-07T04:54:13;4.00;99.90
14600;DHT22;7386;45.586;12.854;2022-12-07T04:56:42;3.90;99.90
14600;DHT22;7386;45.586;12.854;2022-12-07T04:59:11;3.90;99.90
14600;DHT22;7386;45.586;12.854;2022-12-07T05:01:39;3.80;99.90
14600;DHT22;7386;45.586;12.854;2022-12-07T05:04:08;3.80;99.90
14600;DHT22;7386;45.586;12.854;2022-12-07T05:06:36;3.80;99.90
14600;DHT22;7386;45.586;12.854;2022-12-07T05:09:05;3.80;99.90
14600;DHT22;7386;45.586;12.854;2022-12-07T05:11:34;3.80;99.90
14600;DHT22;7386;45.586;12.854;2022-12-07T05:14:14;3.70;99.90
14600;DHT22;7386;45.586;12.854;2022-12-07T05:16:42;3.70;99.90
14600;DHT22;7386;45.586;12.854;2022-12-07T05:19:11;3.70;99.90
14600;DHT22;7386;45.586;12.854;2022-12-07T05:21:39;3.70;99.90
14600;DHT22;7386;45.586;12.854;2022-12-07T05:24:11;3.70;99.90
14600;DHT22;7386;45.586;12.854;2022-12-07T05:26:40;3.70;99.90
14600;DHT22;7386;45.586;12.854;2022-12-07T05:29:11;3.70;99.90
14600;DHT22;7386;45.586;12.854;2022-12-07T05:31:40;3.60;99.90
14600;DHT22;7386;45.586;12.854;2022-12-07T05:34:08;3.60;99.90
14600;DHT22;7386;45.586;12.854;2022-12-07T05:36:36;3.60;99.90
14600;DHT22;7386;45.586;12.854;2022-12-07T05:39:05;3.60;99.90
14600;DHT22;7386;45.586;12.854;2022-12-07T05:41:35;3.60;99.90
14600;DHT22;7386;45.586;12.854;2022-12-07T05:44:21;3.50;99.90
14600;DHT22;7386;45.586;12.854;2022-12-07T05:46:49;3.40;99.90
14600;DHT22;7386;45.586;12.854;2022-12-07T05:49:17;3.40;99.90
14600;DHT22;7386;45.586;12.854;2022-12-07T05:51:45;3.30;99.90
14600;DHT22;7386;45.586;12.854;2022-12-07T05:54:14;3.30;99.90
14600;DHT22;7386;45.586;12.854;2022-12-07T05:56:43;3.20;99.90
14600;DHT22;7386;45.586;12.854;2022-12-07T05:59:11;3.20;99.90
14600;DHT22;7386;45.586;12.854;2022-12-07T06:01:54;3.20;99.90
14600;DHT22;7386;45.586;12.854;2022-12-07T08:36:16;3.20;99.90
14600;DHT22;7386;45.586;12.854;2022-12-07T08:38:45;5.10;99.90
14600;DHT22;7386;45.586;12.854;2022-12-07T08:41:34;5.20;99.90
14600;DHT22;7386;45.586;12.854;2022-12-07T08:44:03;5.30;99.90
14600;DHT22;7386;45.586;12.854;2022-12-07T08:46:35;5.40;99.90
14600;DHT22;7386;45.586;12.854;2022-12-07T08:49:10;5.50;99.90
14600;DHT22;7386;45.586;12.854;2022-12-07T08:51:40;5.60;99.90
14600;DHT22;7386;45.586;12.854;2022-12-07T08:54:11;5.80;99.90
14600;DHT22;7386;45.586;12.854;2022-12-07T08:56:42;5.80;99.90
14600;DHT22;7386;45.586;12.854;2022-12-07T08:59:14;5.90;99.90
14600;DHT22;7386;45.586;12.854;2022-12-07T09:01:42;6.00;99.90
14600;DHT22;7386;45.586;12.854;2022-12-07T09:04:11;6.00;99.90
14600;DHT22;7386;45.586;12.854;2022-12-07T09:06:40;6.00;99.90
14600;DHT22;7386;45.586;12.854;2022-12-07T09:09:10;6.10;99.90
14600;DHT22;7386;45.586;12.854;2022-12-07T09:11:39;6.20;99.90
14600;DHT22;7386;45.586;12.854;2022-12-07T09:14:08;6.30;99.90
14600;DHT22;7386;45.586;12.854;2022-12-07T09:16:36;6.30;99.90
14600;DHT22;7386;45.586;12.854;2022-12-07T09:19:05;6.40;99.90
14600;DHT22;7386;45.586;12.854;2022-12-07T09:21:33;6.40;99.90
14600;DHT22;7386;45.586;12.854;2022-12-07T09:24:01;6.40;99.90
14600;DHT22;7386;45.586;12.854;2022-12-07T09:28:58;6.50;99.90
14600;DHT22;7386;45.586;12.854;2022-12-07T09:31:27;6.70;99.90
14600;DHT22;7386;45.586;12.854;2022-12-07T09:33:56;6.80;99.90
14600;DHT22;7386;45.586;12.854;2022-12-07T09:36:26;6.90;99.90
14600;DHT22;7386;45.586;12.854;2022-12-07T09:38:54;6.90;99.90
14600;DHT22;7386;45.586;12.854;2022-12-07T09:41:24;6.90;99.90
14600;DHT22;7386;45.586;12.854;2022-12-07T09:43:54;7.00;99.90
14600;DHT22;7386;45.586;12.854;2022-12-07T09:46:27;7.00;99.90
14600;DHT22;7386;45.586;12.854;2022-12-07T09:48:56;7.10;99.90
14600;DHT22;7386;45.586;12.854;2022-12-07T09:51:24;7.20;99.90
14600;DHT22;7386;45.586;12.854;2022-12-07T09:53:54;7.20;99.90
14600;DHT22;7386;45.586;12.854;2022-12-07T09:56:24;7.20;99.90
14600;DHT22;7386;45.586;12.854;2022-12-07T09:58:58;7.30;99.90
14600;DHT22;7386;45.586;12.854;2022-12-07T10:01:31;7.40;99.90
14600;DHT22;7386;45.586;12.854;2022-12-07T10:04:06;7.50;99.90
14600;DHT22;7386;45.586;12.854;2022-12-07T10:06:37;7.70;99.90
14600;DHT22;7386;45.586;12.854;2022-12-07T10:09:10;7.80;99.90
14600;DHT22;7386;45.586;12.854;2022-12-07T10:12:00;7.80;99.90
14600;DHT22;7386;45.586;12.854;2022-12-07T10:14:31;7.80;99.90
14600;DHT22;7386;45.586;12.854;2022-12-07T10:17:32;7.90;99.90
14600;DHT22;7386;45.586;12.854;2022-12-07T10:20:24;8.00;99.90
14600;DHT22;7386;45.586;12.854;2022-12-07T10:23:01;8.00;99.90
14600;DHT22;7386;45.586;12.854;2022-12-07T10:25:31;8.10;99.90
14600;DHT22;7386;45.586;12.854;2022-12-07T10:28:15;8.20;99.90
14600;DHT22;7386;45.586;12.854;2022-12-07T10:30:52;8.20;99.90
14600;DHT22;7386;45.586;12.854;2022-12-07T10:33:34;8.30;99.90
14600;DHT22;7386;45.586;12.854;2022-12-07T10:36:18;8.40;99.90
14600;DHT22;7386;45.586;12.854;2022-12-07T10:38:49;8.40;99.90
14600;DHT22;7386;45.586;12.854;2022-12-07T10:41:18;8.50;99.90
14600;DHT22;7386;45.586;12.854;2022-12-07T10:43:49;8.50;99.80
14600;DHT22;7386;45.586;12.854;2022-12-07T10:46:43;8.60;99.80
14600;DHT22;7386;45.586;12.854;2022-12-07T10:52:45;8.80;99.60
14600;DHT22;7386;45.586;12.854;2022-12-07T10:55:25;8.80;99.30
14600;DHT22;7386;45.586;12.854;2022-12-07T10:58:13;8.80;99.30
14600;DHT22;7386;45.586;12.854;2022-12-07T11:00:50;8.90;99.30
14600;DHT22;7386;45.586;12.854;2022-12-07T11:03:36;8.90;99.30
14600;DHT22;7386;45.586;12.854;2022-12-07T11:06:19;9.00;99.30
14600;DHT22;7386;45.586;12.854;2022-12-07T11:09:00;9.10;99.10
14600;DHT22;7386;45.586;12.854;2022-12-07T11:11:35;9.10;99.00
14600;DHT22;7386;45.586;12.854;2022-12-07T11:14:13;9.20;99.00
14600;DHT22;7386;45.586;12.854;2022-12-07T11:16:53;9.20;98.90
14600;DHT22;7386;45.586;12.854;2022-12-07T11:19:40;9.30;98.90
14600;DHT22;7386;45.586;12.854;2022-12-07T11:22:23;9.30;99.10
14600;DHT22;7386;45.586;12.854;2022-12-07T11:25:02;9.40;98.80
14600;DHT22;7386;45.586;12.854;2022-12-07T11:27:41;9.50;99.20
14600;DHT22;7386;45.586;12.854;2022-12-07T11:30:15;9.50;98.70
14600;DHT22;7386;45.586;12.854;2022-12-07T11:32:55;9.50;98.50
14600;DHT22;7386;45.586;12.854;2022-12-07T11:35:31;9.50;98.70
14600;DHT22;7386;45.586;12.854;2022-12-07T11:38:09;9.60;98.70
14600;DHT22;7386;45.586;12.854;2022-12-07T11:40:40;9.70;98.60
14600;DHT22;7386;45.586;12.854;2022-12-07T11:43:17;9.70;98.50
14600;DHT22;7386;45.586;12.854;2022-12-07T11:45:52;9.70;98.40
14600;DHT22;7386;45.586;12.854;2022-12-07T11:48:29;9.80;98.40
14600;DHT22;7386;45.586;12.854;2022-12-07T11:51:01;9.90;98.40
14600;DHT22;7386;45.586;12.854;2022-12-07T11:53:35;9.90;98.10
14600;DHT22;7386;45.586;12.854;2022-12-07T11:56:10;9.90;98.00
14600;DHT22;7386;45.586;12.854;2022-12-07T11:58:48;9.90;98.20
14600;DHT22;7386;45.586;12.854;2022-12-07T12:01:30;10.00;97.60
14600;DHT22;7386;45.586;12.854;2022-12-07T12:04:05;10.00;97.50
14600;DHT22;7386;45.586;12.854;2022-12-07T12:06:35;10.00;97.40
14600;DHT22;7386;45.586;12.854;2022-12-07T12:09:06;10.00;97.30
14600;DHT22;7386;45.586;12.854;2022-12-07T12:12:40;10.10;97.40
14600;DHT22;7386;45.586;12.854;2022-12-07T12:15:43;10.10;97.40
14600;DHT22;7386;45.586;12.854;2022-12-07T12:18:35;10.10;97.30
14600;DHT22;7386;45.586;12.854;2022-12-07T12:21:09;10.20;97.40
14600;DHT22;7386;45.586;12.854;2022-12-07T12:23:42;10.20;97.40
14600;DHT22;7386;45.586;12.854;2022-12-07T12:26:16;10.20;97.20
14600;DHT22;7386;45.586;12.854;2022-12-07T12:28:52;10.20;96.90
14600;DHT22;7386;45.586;12.854;2022-12-07T12:31:34;10.30;96.70
14600;DHT22;7386;45.586;12.854;2022-12-07T12:34:29;10.30;96.90
14600;DHT22;7386;45.586;12.854;2022-12-07T12:36:53;10.40;96.70
14600;DHT22;7386;45.586;12.854;2022-12-07T12:39:21;10.40;96.70
14600;DHT22;7386;45.586;12.854;2022-12-07T12:42:00;10.40;96.70
14600;DHT22;7386;45.586;12.854;2022-12-07T12:47:57;10.50;96.80
14600;DHT22;7386;45.586;12.854;2022-12-07T12:50:31;10.50;96.60
14600;DHT22;7386;45.586;12.854;2022-12-07T12:53:11;10.50;96.50
14600;DHT22;7386;45.586;12.854;2022-12-07T12:58:35;10.60;96.70
14600;DHT22;7386;45.586;12.854;2022-12-07T15:00:02;10.60;96.40
14600;DHT22;7386;45.586;12.854;2022-12-07T15:02:31;10.50;96.90
14600;DHT22;7386;45.586;12.854;2022-12-07T15:04:59;10.40;97.10
14600;DHT22;7386;45.586;12.854;2022-12-07T15:07:29;10.40;97.20
14600;DHT22;7386;45.586;12.854;2022-12-07T15:09:57;10.40;97.40
14600;DHT22;7386;45.586;12.854;2022-12-07T15:12:25;10.30;97.60
14600;DHT22;7386;45.586;12.854;2022-12-07T15:14:53;10.20;97.80
14600;DHT22;7386;45.586;12.854;2022-12-07T15:17:22;10.20;98.00
14600;DHT22;7386;45.586;12.854;2022-12-07T15:19:59;10.20;98.00
14600;DHT22;7386;45.586;12.854;2022-12-07T15:22:27;10.10;98.10
14600;DHT22;7386;45.586;12.854;2022-12-07T15:25:04;10.00;98.20
14600;DHT22;7386;45.586;12.854;2022-12-07T15:27:33;10.00;98.20
14600;DHT22;7386;45.586;12.854;2022-12-07T15:30:02;9.90;98.80
14600;DHT22;7386;45.586;12.854;2022-12-07T15:32:30;9.90;98.90
14600;DHT22;7386;45.586;12.854;2022-12-07T15:35:00;9.80;99.00
14600;DHT22;7386;45.586;12.854;2022-12-07T15:37:29;9.80;98.90
14600;DHT22;7386;45.586;12.854;2022-12-07T15:39:57;9.70;99.00
14600;DHT22;7386;45.586;12.854;2022-12-07T15:42:33;9.70;99.00
14600;DHT22;7386;45.586;12.854;2022-12-07T15:45:01;9.60;99.00
14600;DHT22;7386;45.586;12.854;2022-12-07T15:47:33;9.60;99.10
14600;DHT22;7386;45.586;12.854;2022-12-07T15:50:24;9.50;99.00
14600;DHT22;7386;45.586;12.854;2022-12-07T15:52:52;9.50;99.10
14600;DHT22;7386;45.586;12.854;2022-12-07T15:55:20;9.50;99.10
14600;DHT22;7386;45.586;12.854;2022-12-07T15:57:48;9.40;99.10
14600;DHT22;7386;45.586;12.854;2022-12-07T16:00:18;9.30;99.20
14600;DHT22;7386;45.586;12.854;2022-12-07T16:02:46;9.30;99.20
14600;DHT22;7386;45.586;12.854;2022-12-07T16:05:14;9.30;99.20
14600;DHT22;7386;45.586;12.854;2022-12-07T16:07:44;9.20;99.20
14600;DHT22;7386;45.586;12.854;2022-12-07T16:10:14;9.20;99.30
14600;DHT22;7386;45.586;12.854;2022-12-07T16:12:42;9.10;99.20
14600;DHT22;7386;45.586;12.854;2022-12-07T16:15:10;9.10;99.30
14600;DHT22;7386;45.586;12.854;2022-12-07T16:17:39;9.00;99.40
14600;DHT22;7386;45.586;12.854;2022-12-07T16:20:08;9.00;99.30
14600;DHT22;7386;45.586;12.854;2022-12-07T16:22:36;8.90;99.40
14600;DHT22;7386;45.586;12.854;2022-12-07T16:25:07;8.80;99.50
14600;DHT22;7386;45.586;12.854;2022-12-07T16:27:35;8.80;99.50
14600;DHT22;7386;45.586;12.854;2022-12-07T16:30:05;8.80;99.60
14600;DHT22;7386;45.586;12.854;2022-12-07T16:32:33;8.80;99.80
14600;DHT22;7386;45.586;12.854;2022-12-07T16:35:01;8.80;99.80
14600;DHT22;7386;45.586;12.854;2022-12-07T16:37:30;8.80;99.80
14600;DHT22;7386;45.586;12.854;2022-12-07T16:39:58;8.80;99.90
14600;DHT22;7386;45.586;12.854;2022-12-07T16:42:31;8.80;99.90
14600;DHT22;7386;45.586;12.854;2022-12-07T16:45:00;8.70;99.90
14600;DHT22;7386;45.586;12.854;2022-12-07T16:47:29;8.80;99.90
14600;DHT22;7386;45.586;12.854;2022-12-07T16:49:57;8.70;99.90
14600;DHT22;7386;45.586;12.854;2022-12-07T16:52:25;8.70;99.90
14600;DHT22;7386;45.586;12.854;2022-12-07T16:54:53;8.70;99.90
14600;DHT22;7386;45.586;12.854;2022-12-07T16:57:21;8.60;99.90
14600;DHT22;7386;45.586;12.854;2022-12-07T17:04:49;8.60;99.90
14600;DHT22;7386;45.586;12.854;2022-12-07T17:07:18;8.40;99.90
